sensor_id;sensor_type;location;lat;lon;timestamp;pressure;altitude;pressure_sealevel;temperature;humidity
75008;BME280;63554;48.940;12.050;2023-07-31T00:00:06;97459.13;;;14.07;82.88
75008;BME280;63554;48.940;12.050;2023-07-31T00:04:10;97454.44;;;13.90;83.05
75008;BME280;63554;48.940;12.050;2023-07-31T00:08:14;97446.75;;;13.87;82.50
75008;BME280;63554;48.940;12.050;2023-07-31T00:12:17;97450.19;;;13.82;82.49
75008;BME280;63554;48.940;12.050;2023-07-31T00:16:19;97449.09;;;13.83;82.42
75008;BME280;63554;48.940;12.050;2023-07-31T00:20:22;97455.03;;;13.80;82.20
75008;BME280;63554;48.940;12.050;2023-07-31T00:24:27;97453.16;;;13.81;82.40
75008;BME280;63554;48.940;12.050;2023-07-31T00:28:29;97454.34;;;13.73;81.87
75008;BME280;63554;48.940;12.050;2023-07-31T00:32:32;97451.97;;;13.65;82.72
75008;BME280;63554;48.940;12.050;2023-07-31T00:36:35;97462.72;;;13.60;82.75
75008;BME280;63554;48.940;12.050;2023-07-31T00:40:39;97455.75;;;13.52;82.16
75008;BME280;63554;48.940;12.050;2023-07-31T00:44:42;97459.31;;;13.53;82.39
75008;BME280;63554;48.940;12.050;2023-07-31T00:48:45;97449.25;;;13.53;82.30
75008;BME280;63554;48.940;12.050;2023-07-31T00:52:48;97448.19;;;13.54;82.25
75008;BME280;63554;48.940;12.050;2023-07-31T00:56:53;97447.59;;;13.52;82.80
75008;BME280;63554;48.940;12.050;2023-07-31T01:00:56;97439.09;;;13.49;83.02
75008;BME280;63554;48.940;12.050;2023-07-31T01:04:59;97435.06;;;13.51;83.42
75008;BME280;63554;48.940;12.050;2023-07-31T01:09:05;97442.28;;;13.45;83.13
75008;BME280;63554;48.940;12.050;2023-07-31T01:13:11;97438.59;;;13.40;83.99
75008;BME280;63554;48.940;12.050;2023-07-31T01:17:14;97437.44;;;13.36;83.59
75008;BME280;63554;48.940;12.050;2023-07-31T01:21:24;97431.63;;;13.32;83.76
75008;BME280;63554;48.940;12.050;2023-07-31T01:25:47;97422.66;;;13.32;84.14
75008;BME280;63554;48.940;12.050;2023-07-31T01:29:55;97417.44;;;13.30;84.31
75008;BME280;63554;48.940;12.050;2023-07-31T01:34:00;97415.41;;;13.25;84.80
75008;BME280;63554;48.940;12.050;2023-07-31T01:38:04;97420.25;;;13.23;85.05
75008;BME280;63554;48.940;12.050;2023-07-31T01:42:08;97424.03;;;13.22;85.27
75008;BME280;63554;48.940;12.050;2023-07-31T01:46:11;97413.06;;;13.17;85.98
75008;BME280;63554;48.940;12.050;2023-07-31T01:50:14;97415.78;;;13.17;86.53
75008;BME280;63554;48.940;12.050;2023-07-31T01:54:16;97404.53;;;13.14;86.00
75008;BME280;63554;48.940;12.050;2023-07-31T01:58:20;97419.06;;;13.08;86.28
75008;BME280;63554;48.940;12.050;2023-07-31T02:02:23;97408.63;;;12.93;86.74
75008;BME280;63554;48.940;12.050;2023-07-31T02:06:26;97408.25;;;12.89;87.27
75008;BME280;63554;48.940;12.050;2023-07-31T02:10:29;97413.81;;;12.82;87.28
75008;BME280;63554;48.940;12.050;2023-07-31T02:14:33;97413.66;;;12.77;88.09
75008;BME280;63554;48.940;12.050;2023-07-31T02:18:35;97411.28;;;12.69;88.59
75008;BME280;63554;48.940;12.050;2023-07-31T02:22:38;97402.19;;;12.63;89.13
75008;BME280;63554;48.940;12.050;2023-07-31T02:26:41;97392.41;;;12.62;89.41
75008;BME280;63554;48.940;12.050;2023-07-31T02:30:45;97395.34;;;12.61;89.46
75008;BME280;63554;48.940;12.050;2023-07-31T02:34:48;97390.59;;;12.56;89.35
75008;BME280;63554;48.940;12.050;2023-07-31T02:38:51;97390.09;;;12.48;89.32
75008;BME280;63554;48.940;12.050;2023-07-31T02:42:53;97392.81;;;12.48;89.34
75008;BME280;63554;48.940;12.050;2023-07-31T02:46:57;97395.75;;;12.46;89.30
75008;BME280;63554;48.940;12.050;2023-07-31T02:51:00;97384.66;;;12.48;89.88
75008;BME280;63554;48.940;12.050;2023-07-31T02:55:03;97378.63;;;12.45;89.72
75008;BME280;63554;48.940;12.050;2023-07-31T02:59:06;97376.97;;;12.44;89.64
75008;BME280;63554;48.940;12.050;2023-07-31T03:03:10;97379.34;;;12.41;89.66
75008;BME280;63554;48.940;12.050;2023-07-31T03:07:13;97372.09;;;12.35;90.23
75008;BME280;63554;48.940;12.050;2023-07-31T03:11:15;97375.06;;;12.33;90.43
75008;BME280;63554;48.940;12.050;2023-07-31T03:15:18;97385.31;;;12.31;91.00
75008;BME280;63554;48.940;12.050;2023-07-31T03:19:22;97384.34;;;12.25;90.48
75008;BME280;63554;48.940;12.050;2023-07-31T03:23:25;97389.41;;;12.22;90.17
75008;BME280;63554;48.940;12.050;2023-07-31T03:27:27;97383.97;;;12.22;90.35
75008;BME280;63554;48.940;12.050;2023-07-31T03:31:30;97392.94;;;12.22;89.91
75008;BME280;63554;48.940;12.050;2023-07-31T03:35:34;97389.03;;;12.18;89.73
75008;BME280;63554;48.940;12.050;2023-07-31T03:39:37;97394.25;;;12.20;89.77
75008;BME280;63554;48.940;12.050;2023-07-31T03:43:40;97386.31;;;12.18;90.08
75008;BME280;63554;48.940;12.050;2023-07-31T03:47:43;97390.94;;;12.18;90.16
75008;BME280;63554;48.940;12.050;2023-07-31T03:51:47;97391.16;;;12.16;89.72
75008;BME280;63554;48.940;12.050;2023-07-31T03:55:50;97392.56;;;12.19;89.79
75008;BME280;63554;48.940;12.050;2023-07-31T03:59:52;97395.69;;;12.34;94.55
75008;BME280;63554;48.940;12.050;2023-07-31T04:03:55;97401.75;;;12.78;98.06
75008;BME280;63554;48.940;12.050;2023-07-31T04:07:59;97381.13;;;13.13;97.58
75008;BME280;63554;48.940;12.050;2023-07-31T04:12:02;97391.31;;;13.17;94.83
75008;BME280;63554;48.940;12.050;2023-07-31T04:16:05;97387.53;;;13.30;93.70
75008;BME280;63554;48.940;12.050;2023-07-31T04:20:08;97374.09;;;13.47;93.67
75008;BME280;63554;48.940;12.050;2023-07-31T04:24:12;97380.78;;;13.56;91.56
75008;BME280;63554;48.940;12.050;2023-07-31T04:28:15;97379.88;;;13.51;90.34
75008;BME280;63554;48.940;12.050;2023-07-31T04:32:18;97370.66;;;13.40;91.02
75008;BME280;63554;48.940;12.050;2023-07-31T04:36:22;97367.34;;;13.38;88.40
75008;BME280;63554;48.940;12.050;2023-07-31T04:40:26;97375.34;;;13.09;87.31
75008;BME280;63554;48.940;12.050;2023-07-31T04:44:28;97371.59;;;12.68;89.61
75008;BME280;63554;48.940;12.050;2023-07-31T04:48:31;97360.59;;;12.51;90.93
75008;BME280;63554;48.940;12.050;2023-07-31T04:52:34;97361.28;;;12.46;92.02
75008;BME280;63554;48.940;12.050;2023-07-31T04:56:38;97368.34;;;12.36;92.05
75008;BME280;63554;48.940;12.050;2023-07-31T05:00:41;97359.97;;;12.37;92.12
75008;BME280;63554;48.940;12.050;2023-07-31T05:04:44;97360.56;;;12.39;93.11
75008;BME280;63554;48.940;12.050;2023-07-31T05:08:46;97363.72;;;12.36;92.23
75008;BME280;63554;48.940;12.050;2023-07-31T05:12:51;97357.72;;;12.34;92.16
75008;BME280;63554;48.940;12.050;2023-07-31T05:16:53;97364.59;;;12.37;92.50
75008;BME280;63554;48.940;12.050;2023-07-31T05:20:56;97361.38;;;12.40;92.66
75008;BME280;63554;48.940;12.050;2023-07-31T05:24:59;97360.69;;;12.44;91.50
75008;BME280;63554;48.940;12.050;2023-07-31T05:29:03;97359.06;;;12.55;90.79
75008;BME280;63554;48.940;12.050;2023-07-31T05:33:06;97350.25;;;12.72;90.82
75008;BME280;63554;48.940;12.050;2023-07-31T05:37:10;97352.31;;;12.88;90.03
75008;BME280;63554;48.940;12.050;2023-07-31T05:41:13;97355.13;;;13.05;87.90
75008;BME280;63554;48.940;12.050;2023-07-31T05:45:17;97354.66;;;13.20;87.32
75008;BME280;63554;48.940;12.050;2023-07-31T05:49:19;97352.56;;;13.34;86.68
75008;BME280;63554;48.940;12.050;2023-07-31T05:53:22;97349.69;;;13.52;87.14
75008;BME280;63554;48.940;12.050;2023-07-31T05:57:25;97347.31;;;13.68;85.82
75008;BME280;63554;48.940;12.050;2023-07-31T06:01:29;97346.09;;;13.87;85.68
75008;BME280;63554;48.940;12.050;2023-07-31T06:05:31;97351.56;;;14.16;84.90
75008;BME280;63554;48.940;12.050;2023-07-31T06:09:34;97344.50;;;14.32;82.20
75008;BME280;63554;48.940;12.050;2023-07-31T06:13:37;97340.63;;;14.56;82.23
75008;BME280;63554;48.940;12.050;2023-07-31T06:17:44;97347.00;;;14.79;81.03
75008;BME280;63554;48.940;12.050;2023-07-31T06:21:46;97343.44;;;14.95;80.62
75008;BME280;63554;48.940;12.050;2023-07-31T06:25:49;97332.38;;;15.02;79.74
75008;BME280;63554;48.940;12.050;2023-07-31T06:29:52;97340.28;;;15.20;79.28
75008;BME280;63554;48.940;12.050;2023-07-31T06:33:56;97337.72;;;15.31;79.08
75008;BME280;63554;48.940;12.050;2023-07-31T06:37:58;97340.75;;;15.51;79.43
75008;BME280;63554;48.940;12.050;2023-07-31T06:42:02;97339.97;;;15.73;78.68
75008;BME280;63554;48.940;12.050;2023-07-31T06:46:05;97344.47;;;15.84;75.38
75008;BME280;63554;48.940;12.050;2023-07-31T06:50:10;97345.53;;;16.05;73.04
75008;BME280;63554;48.940;12.050;2023-07-31T06:54:12;97334.63;;;16.32;72.85
75008;BME280;63554;48.940;12.050;2023-07-31T06:58:15;97338.56;;;16.41;69.48
75008;BME280;63554;48.940;12.050;2023-07-31T07:02:18;97331.28;;;16.52;69.44
75008;BME280;63554;48.940;12.050;2023-07-31T07:06:22;97328.09;;;16.60;69.47
75008;BME280;63554;48.940;12.050;2023-07-31T07:10:25;97327.56;;;16.64;69.94
75008;BME280;63554;48.940;12.050;2023-07-31T07:14:28;97320.59;;;16.78;70.32
75008;BME280;63554;48.940;12.050;2023-07-31T07:18:30;97319.06;;;16.87;68.99
75008;BME280;63554;48.940;12.050;2023-07-31T07:22:34;97327.56;;;16.91;68.81
75008;BME280;63554;48.940;12.050;2023-07-31T07:26:37;97324.00;;;16.90;68.28
75008;BME280;63554;48.940;12.050;2023-07-31T07:30:40;97332.53;;;16.94;68.11
75008;BME280;63554;48.940;12.050;2023-07-31T07:34:43;97334.00;;;16.79;68.05
75008;BME280;63554;48.940;12.050;2023-07-31T07:38:47;97333.00;;;16.86;69.19
75008;BME280;63554;48.940;12.050;2023-07-31T07:42:50;97328.63;;;16.85;66.70
75008;BME280;63554;48.940;12.050;2023-07-31T07:46:53;97328.66;;;16.90;67.20
75008;BME280;63554;48.940;12.050;2023-07-31T07:50:56;97328.34;;;16.86;66.73
75008;BME280;63554;48.940;12.050;2023-07-31T07:55:00;97326.50;;;16.97;67.12
75008;BME280;63554;48.940;12.050;2023-07-31T07:59:03;97322.59;;;17.20;65.88
75008;BME280;63554;48.940;12.050;2023-07-31T08:03:06;97327.25;;;17.19;65.72
75008;BME280;63554;48.940;12.050;2023-07-31T08:07:10;97328.41;;;17.34;65.61
75008;BME280;63554;48.940;12.050;2023-07-31T08:11:14;97332.78;;;17.30;66.01
75008;BME280;63554;48.940;12.050;2023-07-31T08:15:17;97327.75;;;17.16;66.44
75008;BME280;63554;48.940;12.050;2023-07-31T08:19:19;97344.78;;;17.24;67.39
75008;BME280;63554;48.940;12.050;2023-07-31T08:23:22;97338.19;;;17.25;67.50
75008;BME280;63554;48.940;12.050;2023-07-31T08:27:26;97344.78;;;17.24;67.39
75008;BME280;63554;48.940;12.050;2023-07-31T08:31:29;97330.34;;;17.33;66.88
75008;BME280;63554;48.940;12.050;2023-07-31T08:35:32;97330.59;;;17.32;66.88
75008;BME280;63554;48.940;12.050;2023-07-31T08:39:35;97334.38;;;17.26;67.44
75008;BME280;63554;48.940;12.050;2023-07-31T08:43:42;97332.88;;;17.45;65.69
75008;BME280;63554;48.940;12.050;2023-07-31T08:47:47;97312.41;;;17.53;65.73
75008;BME280;63554;48.940;12.050;2023-07-31T08:51:52;97320.88;;;17.51;64.57
75008;BME280;63554;48.940;12.050;2023-07-31T08:55:56;97315.88;;;17.91;64.93
75008;BME280;63554;48.940;12.050;2023-07-31T09:00:00;97306.59;;;18.02;64.06
75008;BME280;63554;48.940;12.050;2023-07-31T09:04:04;97306.63;;;18.12;62.87
75008;BME280;63554;48.940;12.050;2023-07-31T09:08:09;97308.34;;;18.39;62.10
75008;BME280;63554;48.940;12.050;2023-07-31T09:12:12;97303.97;;;18.43;61.30
75008;BME280;63554;48.940;12.050;2023-07-31T09:16:16;97298.50;;;18.43;62.00
75008;BME280;63554;48.940;12.050;2023-07-31T09:20:20;97291.63;;;18.46;61.49
75008;BME280;63554;48.940;12.050;2023-07-31T09:24:27;97289.75;;;18.56;60.44
75008;BME280;63554;48.940;12.050;2023-07-31T09:28:31;97286.44;;;18.54;61.02
75008;BME280;63554;48.940;12.050;2023-07-31T09:32:35;97292.47;;;18.51;60.61
75008;BME280;63554;48.940;12.050;2023-07-31T09:36:40;97271.09;;;18.79;60.70
75008;BME280;63554;48.940;12.050;2023-07-31T09:40:45;97273.84;;;19.05;59.66
75008;BME280;63554;48.940;12.050;2023-07-31T09:44:49;97273.03;;;19.09;59.81
75008;BME280;63554;48.940;12.050;2023-07-31T09:49:03;97282.31;;;19.24;58.92
75008;BME280;63554;48.940;12.050;2023-07-31T09:53:08;97249.59;;;19.48;58.55
75008;BME280;63554;48.940;12.050;2023-07-31T09:57:11;97243.78;;;19.65;56.67
75008;BME280;63554;48.940;12.050;2023-07-31T10:01:14;97232.53;;;19.61;56.30
75008;BME280;63554;48.940;12.050;2023-07-31T10:05:19;97240.66;;;19.87;56.86
75008;BME280;63554;48.940;12.050;2023-07-31T10:09:24;97228.75;;;20.07;57.00
75008;BME280;63554;48.940;12.050;2023-07-31T10:13:29;97217.09;;;20.25;55.24
75008;BME280;63554;48.940;12.050;2023-07-31T10:17:33;97208.22;;;20.33;54.63
75008;BME280;63554;48.940;12.050;2023-07-31T10:21:39;97212.03;;;20.43;53.37
75008;BME280;63554;48.940;12.050;2023-07-31T10:25:44;97196.88;;;20.45;53.03
75008;BME280;63554;48.940;12.050;2023-07-31T10:29:47;97190.72;;;20.59;51.89
75008;BME280;63554;48.940;12.050;2023-07-31T10:33:51;97191.03;;;20.86;52.10
75008;BME280;63554;48.940;12.050;2023-07-31T10:38:09;97187.13;;;20.92;51.51
75008;BME280;63554;48.940;12.050;2023-07-31T10:42:12;97190.22;;;20.86;51.89
75008;BME280;63554;48.940;12.050;2023-07-31T10:46:15;97185.94;;;20.99;51.33
75008;BME280;63554;48.940;12.050;2023-07-31T10:50:19;97172.97;;;20.75;52.64
75008;BME280;63554;48.940;12.050;2023-07-31T10:54:24;97171.22;;;21.13;51.99
75008;BME280;63554;48.940;12.050;2023-07-31T10:58:27;97158.75;;;21.40;51.55
75008;BME280;63554;48.940;12.050;2023-07-31T11:02:33;97160.72;;;21.83;52.64
75008;BME280;63554;48.940;12.050;2023-07-31T11:06:55;97159.47;;;21.94;48.65
75008;BME280;63554;48.940;12.050;2023-07-31T11:11:05;97151.09;;;21.99;48.57
75008;BME280;63554;48.940;12.050;2023-07-31T11:15:09;97156.84;;;21.41;47.89
75008;BME280;63554;48.940;12.050;2023-07-31T11:19:13;97150.13;;;21.71;48.20
75008;BME280;63554;48.940;12.050;2023-07-31T11:23:17;97148.31;;;22.18;46.90
75008;BME280;63554;48.940;12.050;2023-07-31T11:27:20;97135.06;;;22.39;46.23
75008;BME280;63554;48.940;12.050;2023-07-31T11:31:23;97124.56;;;22.22;46.70
75008;BME280;63554;48.940;12.050;2023-07-31T11:35:25;97122.94;;;21.83;47.80
75008;BME280;63554;48.940;12.050;2023-07-31T11:39:30;97126.09;;;21.96;47.75
75008;BME280;63554;48.940;12.050;2023-07-31T11:43:33;97115.25;;;22.18;46.64
75008;BME280;63554;48.940;12.050;2023-07-31T11:47:38;97108.03;;;22.55;46.38
75008;BME280;63554;48.940;12.050;2023-07-31T11:51:41;97108.31;;;22.54;46.19
75008;BME280;63554;48.940;12.050;2023-07-31T11:55:45;97107.94;;;22.46;44.39
75008;BME280;63554;48.940;12.050;2023-07-31T11:59:48;97106.03;;;22.88;44.91
75008;BME280;63554;48.940;12.050;2023-07-31T12:03:52;97091.72;;;23.42;44.75
75008;BME280;63554;48.940;12.050;2023-07-31T12:07:55;97084.28;;;23.65;44.19
75008;BME280;63554;48.940;12.050;2023-07-31T12:11:59;97075.03;;;23.83;45.17
75008;BME280;63554;48.940;12.050;2023-07-31T12:16:03;97075.81;;;23.61;43.05
75008;BME280;63554;48.940;12.050;2023-07-31T12:20:07;97068.53;;;23.29;43.85
75008;BME280;63554;48.940;12.050;2023-07-31T12:24:10;97074.16;;;22.82;45.04
75008;BME280;63554;48.940;12.050;2023-07-31T12:28:14;97050.41;;;22.81;44.85
75008;BME280;63554;48.940;12.050;2023-07-31T12:32:21;97057.09;;;23.08;44.72
75008;BME280;63554;48.940;12.050;2023-07-31T12:36:24;97050.03;;;22.88;46.09
75008;BME280;63554;48.940;12.050;2023-07-31T12:40:27;97046.75;;;22.86;46.08
75008;BME280;63554;48.940;12.050;2023-07-31T12:44:35;97048.59;;;22.63;45.21
75008;BME280;63554;48.940;12.050;2023-07-31T12:48:38;97060.34;;;22.82;45.63
75008;BME280;63554;48.940;12.050;2023-07-31T12:52:41;97047.25;;;23.02;44.51
75008;BME280;63554;48.940;12.050;2023-07-31T12:56:43;97044.81;;;23.64;43.25
75008;BME280;63554;48.940;12.050;2023-07-31T13:00:47;97034.53;;;23.28;43.86
75008;BME280;63554;48.940;12.050;2023-07-31T13:04:50;97033.31;;;23.71;42.87
75008;BME280;63554;48.940;12.050;2023-07-31T13:08:53;97022.94;;;23.54;42.55
75008;BME280;63554;48.940;12.050;2023-07-31T13:12:56;97012.69;;;23.77;42.28
75008;BME280;63554;48.940;12.050;2023-07-31T13:17:00;97011.81;;;23.45;43.51
75008;BME280;63554;48.940;12.050;2023-07-31T13:21:03;97014.50;;;23.37;42.89
75008;BME280;63554;48.940;12.050;2023-07-31T13:25:06;97002.06;;;23.25;43.97
75008;BME280;63554;48.940;12.050;2023-07-31T13:29:10;96985.00;;;22.96;44.39
75008;BME280;63554;48.940;12.050;2023-07-31T13:33:14;96986.63;;;23.47;43.27
75008;BME280;63554;48.940;12.050;2023-07-31T13:37:36;96979.19;;;23.93;42.94
75008;BME280;63554;48.940;12.050;2023-07-31T13:41:39;96968.31;;;24.27;42.69
75008;BME280;63554;48.940;12.050;2023-07-31T13:45:42;96961.81;;;24.01;42.43
75008;BME280;63554;48.940;12.050;2023-07-31T13:49:46;96960.34;;;24.26;41.25
75008;BME280;63554;48.940;12.050;2023-07-31T13:53:49;96946.69;;;24.70;41.88
75008;BME280;63554;48.940;12.050;2023-07-31T13:57:52;96950.16;;;24.84;41.30
75008;BME280;63554;48.940;12.050;2023-07-31T14:01:55;96959.75;;;24.78;41.13
75008;BME280;63554;48.940;12.050;2023-07-31T14:05:59;96944.53;;;24.18;41.39
75008;BME280;63554;48.940;12.050;2023-07-31T14:10:02;96936.81;;;24.06;42.84
75008;BME280;63554;48.940;12.050;2023-07-31T14:14:06;96926.81;;;24.67;41.66
75008;BME280;63554;48.940;12.050;2023-07-31T14:18:08;96937.41;;;24.34;41.84
75008;BME280;63554;48.940;12.050;2023-07-31T14:22:13;96937.59;;;24.38;41.91
75008;BME280;63554;48.940;12.050;2023-07-31T14:26:16;96915.69;;;23.79;42.58
75008;BME280;63554;48.940;12.050;2023-07-31T14:30:18;96921.09;;;24.55;42.00
75008;BME280;63554;48.940;12.050;2023-07-31T14:34:21;96911.91;;;24.46;41.99
75008;BME280;63554;48.940;12.050;2023-07-31T14:38:25;96922.81;;;25.00;40.21
75008;BME280;63554;48.940;12.050;2023-07-31T14:42:28;96916.91;;;24.66;41.67
75008;BME280;63554;48.940;12.050;2023-07-31T14:46:30;96906.28;;;24.11;42.21
75008;BME280;63554;48.940;12.050;2023-07-31T14:50:33;96895.50;;;24.50;42.44
75008;BME280;63554;48.940;12.050;2023-07-31T14:54:38;96899.66;;;24.21;42.72
75008;BME280;63554;48.940;12.050;2023-07-31T14:58:40;96898.91;;;23.75;43.88
75008;BME280;63554;48.940;12.050;2023-07-31T15:02:43;96903.19;;;23.59;43.70
75008;BME280;63554;48.940;12.050;2023-07-31T15:06:46;96903.31;;;23.76;44.69
75008;BME280;63554;48.940;12.050;2023-07-31T15:10:50;96897.25;;;24.37;43.29
75008;BME280;63554;48.940;12.050;2023-07-31T15:14:58;96892.28;;;24.07;43.41
75008;BME280;63554;48.940;12.050;2023-07-31T15:19:01;96890.28;;;23.99;43.29
75008;BME280;63554;48.940;12.050;2023-07-31T15:23:04;96884.69;;;23.82;44.14
75008;BME280;63554;48.940;12.050;2023-07-31T15:27:08;96881.09;;;23.59;44.72
75008;BME280;63554;48.940;12.050;2023-07-31T15:31:11;96882.25;;;23.35;45.95
75008;BME280;63554;48.940;12.050;2023-07-31T15:35:13;96879.09;;;23.28;46.15
75008;BME280;63554;48.940;12.050;2023-07-31T15:39:16;96876.50;;;23.09;46.44
75008;BME280;63554;48.940;12.050;2023-07-31T15:43:21;96875.22;;;22.93;46.28
75008;BME280;63554;48.940;12.050;2023-07-31T15:47:24;96879.78;;;22.75;47.20
75008;BME280;63554;48.940;12.050;2023-07-31T15:51:26;96865.47;;;22.73;46.98
75008;BME280;63554;48.940;12.050;2023-07-31T15:55:29;96869.59;;;22.61;48.13
75008;BME280;63554;48.940;12.050;2023-07-31T15:59:33;96870.91;;;22.64;48.40
75008;BME280;63554;48.940;12.050;2023-07-31T16:03:36;96862.31;;;22.65;48.17
75008;BME280;63554;48.940;12.050;2023-07-31T16:07:39;96860.41;;;22.52;48.65
75008;BME280;63554;48.940;12.050;2023-07-31T16:11:41;96858.69;;;22.56;49.04
75008;BME280;63554;48.940;12.050;2023-07-31T16:15:46;96854.47;;;22.59;49.14
75008;BME280;63554;48.940;12.050;2023-07-31T16:19:49;96860.09;;;22.54;49.07
75008;BME280;63554;48.940;12.050;2023-07-31T16:23:51;96851.63;;;22.50;49.43
75008;BME280;63554;48.940;12.050;2023-07-31T16:27:54;96840.28;;;22.51;48.97
75008;BME280;63554;48.940;12.050;2023-07-31T16:31:58;96831.09;;;22.56;48.38
75008;BME280;63554;48.940;12.050;2023-07-31T16:36:01;96838.94;;;22.63;48.37
75008;BME280;63554;48.940;12.050;2023-07-31T16:40:04;96838.53;;;22.56;48.50
75008;BME280;63554;48.940;12.050;2023-07-31T16:44:07;96835.28;;;22.54;48.69
75008;BME280;63554;48.940;12.050;2023-07-31T16:48:11;96829.34;;;22.60;48.63
75008;BME280;63554;48.940;12.050;2023-07-31T16:52:14;96831.66;;;22.67;48.00
75008;BME280;63554;48.940;12.050;2023-07-31T16:56:17;96822.94;;;22.87;47.46
75008;BME280;63554;48.940;12.050;2023-07-31T17:00:20;96815.13;;;23.03;47.74
75008;BME280;63554;48.940;12.050;2023-07-31T17:04:24;96813.88;;;23.09;46.87
75008;BME280;63554;48.940;12.050;2023-07-31T17:08:26;96810.34;;;23.18;47.74
75008;BME280;63554;48.940;12.050;2023-07-31T17:12:29;96813.66;;;23.06;47.49
75008;BME280;63554;48.940;12.050;2023-07-31T17:16:32;96828.00;;;22.94;49.32
75008;BME280;63554;48.940;12.050;2023-07-31T17:20:38;96818.63;;;22.81;48.24
75008;BME280;63554;48.940;12.050;2023-07-31T17:24:40;96814.13;;;22.63;47.90
75008;BME280;63554;48.940;12.050;2023-07-31T17:28:43;96812.09;;;22.55;48.17
75008;BME280;63554;48.940;12.050;2023-07-31T17:32:46;96802.03;;;22.36;49.19
75008;BME280;63554;48.940;12.050;2023-07-31T17:36:50;96795.28;;;22.28;49.76
75008;BME280;63554;48.940;12.050;2023-07-31T17:40:53;96805.22;;;22.29;50.29
75008;BME280;63554;48.940;12.050;2023-07-31T17:44:55;96796.50;;;22.22;51.01
75008;BME280;63554;48.940;12.050;2023-07-31T17:48:58;96785.78;;;22.21;50.80
75008;BME280;63554;48.940;12.050;2023-07-31T17:53:02;96794.88;;;22.21;51.46
75008;BME280;63554;48.940;12.050;2023-07-31T17:57:08;96784.59;;;22.13;51.63
75008;BME280;63554;48.940;12.050;2023-07-31T18:01:11;96792.44;;;22.06;51.23
75008;BME280;63554;48.940;12.050;2023-07-31T18:05:15;96794.19;;;21.88;51.86
75008;BME280;63554;48.940;12.050;2023-07-31T18:09:19;96784.31;;;21.73;51.59
75008;BME280;63554;48.940;12.050;2023-07-31T18:13:22;96798.88;;;21.60;51.88
75008;BME280;63554;48.940;12.050;2023-07-31T18:17:25;96797.28;;;21.40;52.36
75008;BME280;63554;48.940;12.050;2023-07-31T18:21:28;96792.50;;;21.31;52.95
75008;BME280;63554;48.940;12.050;2023-07-31T18:25:35;96788.50;;;21.24;53.60
75008;BME280;63554;48.940;12.050;2023-07-31T18:29:37;96787.25;;;21.16;53.90
75008;BME280;63554;48.940;12.050;2023-07-31T18:33:40;96793.75;;;21.06;54.67
75008;BME280;63554;48.940;12.050;2023-07-31T18:37:43;96799.44;;;20.96;55.18
75008;BME280;63554;48.940;12.050;2023-07-31T18:41:47;96782.28;;;20.85;55.50
75008;BME280;63554;48.940;12.050;2023-07-31T18:45:50;96781.00;;;20.78;55.83
75008;BME280;63554;48.940;12.050;2023-07-31T18:49:53;96775.41;;;20.69;55.90
75008;BME280;63554;48.940;12.050;2023-07-31T18:53:56;96773.31;;;20.61;56.42
75008;BME280;63554;48.940;12.050;2023-07-31T18:58:00;96777.47;;;20.58;56.82
75008;BME280;63554;48.940;12.050;2023-07-31T19:02:02;96779.66;;;20.56;57.08
75008;BME280;63554;48.940;12.050;2023-07-31T19:06:05;96777.59;;;20.48;57.87
75008;BME280;63554;48.940;12.050;2023-07-31T19:10:09;96777.69;;;20.43;58.42
75008;BME280;63554;48.940;12.050;2023-07-31T19:14:18;96768.72;;;20.37;59.78
75008;BME280;63554;48.940;12.050;2023-07-31T19:18:21;96777.31;;;20.30;58.70
75008;BME280;63554;48.940;12.050;2023-07-31T19:22:24;96775.47;;;20.26;58.91
75008;BME280;63554;48.940;12.050;2023-07-31T19:26:27;96778.06;;;20.17;59.16
75008;BME280;63554;48.940;12.050;2023-07-31T19:30:31;96773.72;;;20.11;59.96
75008;BME280;63554;48.940;12.050;2023-07-31T19:34:34;96769.41;;;20.05;60.68
75008;BME280;63554;48.940;12.050;2023-07-31T19:38:36;96768.38;;;20.01;61.73
75008;BME280;63554;48.940;12.050;2023-07-31T19:42:39;96762.66;;;19.97;63.27
75008;BME280;63554;48.940;12.050;2023-07-31T19:46:43;96777.03;;;19.89;62.17
75008;BME280;63554;48.940;12.050;2023-07-31T19:50:46;96770.28;;;19.81;62.33
75008;BME280;63554;48.940;12.050;2023-07-31T19:54:48;96769.84;;;19.74;62.11
75008;BME280;63554;48.940;12.050;2023-07-31T19:58:51;96769.03;;;19.68;62.61
75008;BME280;63554;48.940;12.050;2023-07-31T20:02:55;96763.88;;;19.62;62.60
75008;BME280;63554;48.940;12.050;2023-07-31T20:06:58;96759.00;;;19.59;62.56
75008;BME280;63554;48.940;12.050;2023-07-31T20:11:00;96757.06;;;19.59;61.70
75008;BME280;63554;48.940;12.050;2023-07-31T20:15:05;96759.00;;;19.59;61.83
75008;BME280;63554;48.940;12.050;2023-07-31T20:19:09;96759.56;;;19.55;62.11
75008;BME280;63554;48.940;12.050;2023-07-31T20:23:12;96760.75;;;19.49;62.33
75008;BME280;63554;48.940;12.050;2023-07-31T20:27:19;96761.63;;;19.45;62.93
75008;BME280;63554;48.940;12.050;2023-07-31T20:31:22;96748.47;;;19.42;63.92
75008;BME280;63554;48.940;12.050;2023-07-31T20:35:27;96733.94;;;19.41;64.04
75008;BME280;63554;48.940;12.050;2023-07-31T20:39:29;96727.13;;;19.39;64.66
75008;BME280;63554;48.940;12.050;2023-07-31T20:43:32;96726.34;;;19.33;65.10
75008;BME280;63554;48.940;12.050;2023-07-31T20:47:35;96723.66;;;19.28;65.46
75008;BME280;63554;48.940;12.050;2023-07-31T20:51:39;96704.22;;;19.24;66.05
75008;BME280;63554;48.940;12.050;2023-07-31T20:55:45;96703.16;;;19.20;66.57
75008;BME280;63554;48.940;12.050;2023-07-31T20:59:48;96700.78;;;19.13;67.39
75008;BME280;63554;48.940;12.050;2023-07-31T21:03:51;96703.56;;;19.08;66.93
75008;BME280;63554;48.940;12.050;2023-07-31T21:07:56;96709.09;;;19.03;66.84
75008;BME280;63554;48.940;12.050;2023-07-31T21:11:59;96694.13;;;18.95;66.97